KMTP

Montauk Airport

Montauk, New York, USA
METAR KMTP 250054Z AUTO VRB05KT 12/12 A3013 RMK AO1 SLP204 T01170117
Observed Flight Rules
May-25 @ 00:54 UTC (27 minutes ago)
Wind
Variable at 5 knots
Temperatures Readings
Current 12°C / 54°F
Dewpoint 12°C / 54°F
Humidity 100%
Altimeter 30.13" Hg
Pressure 1020.4 hPa
Elevation 2
METAR KMTP 250054Z AUTO VRB05KT 12/12 A3013 RMK AO1 SLP204 T01170117
Observed Flight Rules
May-25 @ 00:54 UTC
(27 minutes ago)
Wind
Variable at 5 knots
Temperature Dewpoint
12°C / 54°F 12°C / 54°F
Humidity Altimeter Pressure
100% 30.13" Hg 1020.4 hPa